sensor_id;sensor_type;location;lat;lon;timestamp;P1;durP1;ratioP1;P2;durP2;ratioP2
1262;SDS011;62267;50.112;8.704;2022-12-29T00:02:24;4.30;;;3.40;;
1262;SDS011;62267;50.112;8.704;2022-12-29T00:04:51;4.87;;;3.57;;
1262;SDS011;62267;50.112;8.704;2022-12-29T00:07:19;3.77;;;3.47;;
1262;SDS011;62267;50.112;8.704;2022-12-29T00:09:47;4.37;;;3.53;;
1262;SDS011;62267;50.112;8.704;2022-12-29T00:12:14;3.80;;;3.50;;
1262;SDS011;62267;50.112;8.704;2022-12-29T00:14:41;5.83;;;3.77;;
1262;SDS011;62267;50.112;8.704;2022-12-29T00:17:27;4.43;;;3.83;;
1262;SDS011;62267;50.112;8.704;2022-12-29T00:19:55;3.57;;;3.27;;
1262;SDS011;62267;50.112;8.704;2022-12-29T00:22:43;4.30;;;3.90;;
1262;SDS011;62267;50.112;8.704;2022-12-29T00:25:29;3.60;;;3.30;;
1262;SDS011;62267;50.112;8.704;2022-12-29T00:28:15;3.80;;;3.33;;
1262;SDS011;62267;50.112;8.704;2022-12-29T00:31:03;3.70;;;3.40;;
1262;SDS011;62267;50.112;8.704;2022-12-29T00:33:55;3.90;;;3.60;;
1262;SDS011;62267;50.112;8.704;2022-12-29T00:36:42;4.53;;;3.80;;
1262;SDS011;62267;50.112;8.704;2022-12-29T00:39:15;5.10;;;3.80;;
1262;SDS011;62267;50.112;8.704;2022-12-29T00:42:03;3.93;;;3.50;;
1262;SDS011;62267;50.112;8.704;2022-12-29T00:44:50;4.27;;;3.87;;
1262;SDS011;62267;50.112;8.704;2022-12-29T00:47:17;5.03;;;3.97;;
1262;SDS011;62267;50.112;8.704;2022-12-29T00:49:45;4.60;;;3.90;;
1262;SDS011;62267;50.112;8.704;2022-12-29T00:52:12;4.37;;;3.97;;
1262;SDS011;62267;50.112;8.704;2022-12-29T00:54:40;4.93;;;3.30;;
1262;SDS011;62267;50.112;8.704;2022-12-29T00:57:11;3.80;;;3.50;;
1262;SDS011;62267;50.112;8.704;2022-12-29T00:59:39;6.00;;;3.63;;
1262;SDS011;62267;50.112;8.704;2022-12-29T01:02:07;3.73;;;3.43;;
1262;SDS011;62267;50.112;8.704;2022-12-29T01:04:36;7.03;;;3.93;;
1262;SDS011;62267;50.112;8.704;2022-12-29T01:07:04;4.20;;;3.80;;
1262;SDS011;62267;50.112;8.704;2022-12-29T01:09:33;4.93;;;3.80;;
1262;SDS011;62267;50.112;8.704;2022-12-29T01:12:19;3.83;;;3.40;;
1262;SDS011;62267;50.112;8.704;2022-12-29T01:15:11;3.80;;;3.50;;
1262;SDS011;62267;50.112;8.704;2022-12-29T01:17:40;3.93;;;3.63;;
1262;SDS011;62267;50.112;8.704;2022-12-29T01:20:08;3.87;;;3.57;;
1262;SDS011;62267;50.112;8.704;2022-12-29T01:22:35;3.40;;;3.10;;
1262;SDS011;62267;50.112;8.704;2022-12-29T01:25:03;3.43;;;3.13;;
1262;SDS011;62267;50.112;8.704;2022-12-29T01:27:31;3.40;;;3.10;;
1262;SDS011;62267;50.112;8.704;2022-12-29T01:29:58;5.30;;;4.50;;
1262;SDS011;62267;50.112;8.704;2022-12-29T01:32:25;3.70;;;3.40;;
1262;SDS011;62267;50.112;8.704;2022-12-29T01:34:53;2.97;;;2.77;;
1262;SDS011;62267;50.112;8.704;2022-12-29T01:37:20;3.70;;;3.03;;
1262;SDS011;62267;50.112;8.704;2022-12-29T01:39:47;3.60;;;3.30;;
1262;SDS011;62267;50.112;8.704;2022-12-29T01:42:16;3.23;;;2.70;;
1262;SDS011;62267;50.112;8.704;2022-12-29T01:44:49;3.53;;;3.23;;
1262;SDS011;62267;50.112;8.704;2022-12-29T01:47:28;3.63;;;3.33;;
1262;SDS011;62267;50.112;8.704;2022-12-29T01:49:57;2.97;;;2.77;;
1262;SDS011;62267;50.112;8.704;2022-12-29T01:52:27;2.80;;;2.60;;
1262;SDS011;62267;50.112;8.704;2022-12-29T01:54:56;2.87;;;2.67;;
1262;SDS011;62267;50.112;8.704;2022-12-29T01:57:29;3.20;;;2.90;;
1262;SDS011;62267;50.112;8.704;2022-12-29T02:00:09;3.07;;;2.87;;
1262;SDS011;62267;50.112;8.704;2022-12-29T02:02:38;3.67;;;3.10;;
1262;SDS011;62267;50.112;8.704;2022-12-29T02:05:18;3.33;;;3.03;;
1262;SDS011;62267;50.112;8.704;2022-12-29T02:07:47;3.43;;;2.87;;
1262;SDS011;62267;50.112;8.704;2022-12-29T02:10:16;3.70;;;3.37;;
1262;SDS011;62267;50.112;8.704;2022-12-29T02:12:45;2.63;;;2.43;;
1262;SDS011;62267;50.112;8.704;2022-12-29T02:15:12;3.20;;;2.77;;
1262;SDS011;62267;50.112;8.704;2022-12-29T02:18:03;5.07;;;3.00;;
1262;SDS011;62267;50.112;8.704;2022-12-29T02:20:56;3.77;;;2.90;;
1262;SDS011;62267;50.112;8.704;2022-12-29T02:23:32;2.67;;;2.57;;
1262;SDS011;62267;50.112;8.704;2022-12-29T02:26:11;3.30;;;3.00;;
1262;SDS011;62267;50.112;8.704;2022-12-29T02:36:43;2.70;;;2.50;;
1262;SDS011;62267;50.112;8.704;2022-12-29T02:41:56;2.83;;;2.50;;
1262;SDS011;62267;50.112;8.704;2022-12-29T02:47:03;2.37;;;2.27;;
1262;SDS011;62267;50.112;8.704;2022-12-29T02:52:37;2.70;;;2.37;;
1262;SDS011;62267;50.112;8.704;2022-12-29T02:55:06;2.83;;;2.27;;
1262;SDS011;62267;50.112;8.704;2022-12-29T02:57:34;2.30;;;2.20;;
1262;SDS011;62267;50.112;8.704;2022-12-29T03:02:47;2.40;;;2.10;;
1262;SDS011;62267;50.112;8.704;2022-12-29T03:05:34;2.40;;;2.30;;
1262;SDS011;62267;50.112;8.704;2022-12-29T03:10:42;2.50;;;2.30;;
1262;SDS011;62267;50.112;8.704;2022-12-29T03:19:07;2.30;;;2.20;;
1262;SDS011;62267;50.112;8.704;2022-12-29T03:24:44;6.43;;;4.23;;
1262;SDS011;62267;50.112;8.704;2022-12-29T03:27:14;2.40;;;2.20;;
1262;SDS011;62267;50.112;8.704;2022-12-29T03:29:45;2.80;;;2.50;;
1262;SDS011;62267;50.112;8.704;2022-12-29T03:32:19;2.57;;;2.37;;
1262;SDS011;62267;50.112;8.704;2022-12-29T03:34:47;2.90;;;2.70;;
1262;SDS011;62267;50.112;8.704;2022-12-29T03:37:20;2.90;;;2.60;;
1262;SDS011;62267;50.112;8.704;2022-12-29T03:39:50;2.10;;;2.00;;
1262;SDS011;62267;50.112;8.704;2022-12-29T03:42:19;4.10;;;2.37;;
1262;SDS011;62267;50.112;8.704;2022-12-29T03:44:47;4.37;;;2.30;;
1262;SDS011;62267;50.112;8.704;2022-12-29T03:47:17;3.00;;;2.40;;
1262;SDS011;62267;50.112;8.704;2022-12-29T03:49:45;3.93;;;2.40;;
1262;SDS011;62267;50.112;8.704;2022-12-29T03:52:13;2.80;;;2.40;;
1262;SDS011;62267;50.112;8.704;2022-12-29T03:54:43;2.90;;;2.50;;
1262;SDS011;62267;50.112;8.704;2022-12-29T03:57:11;2.37;;;2.17;;
1262;SDS011;62267;50.112;8.704;2022-12-29T03:59:49;2.87;;;2.60;;
1262;SDS011;62267;50.112;8.704;2022-12-29T04:02:17;2.77;;;2.40;;
1262;SDS011;62267;50.112;8.704;2022-12-29T04:04:44;3.33;;;2.37;;
1262;SDS011;62267;50.112;8.704;2022-12-29T04:07:12;4.77;;;3.20;;
1262;SDS011;62267;50.112;8.704;2022-12-29T04:09:41;3.13;;;2.90;;
1262;SDS011;62267;50.112;8.704;2022-12-29T04:12:13;3.13;;;2.83;;
1262;SDS011;62267;50.112;8.704;2022-12-29T04:14:41;3.10;;;2.30;;
1262;SDS011;62267;50.112;8.704;2022-12-29T04:17:08;5.13;;;2.80;;
1262;SDS011;62267;50.112;8.704;2022-12-29T04:19:37;3.27;;;2.47;;
1262;SDS011;62267;50.112;8.704;2022-12-29T04:22:05;2.40;;;2.20;;
1262;SDS011;62267;50.112;8.704;2022-12-29T04:24:33;3.73;;;2.43;;
1262;SDS011;62267;50.112;8.704;2022-12-29T04:27:02;2.70;;;2.50;;
1262;SDS011;62267;50.112;8.704;2022-12-29T04:29:52;2.70;;;2.60;;
1262;SDS011;62267;50.112;8.704;2022-12-29T04:32:44;3.00;;;2.80;;
1262;SDS011;62267;50.112;8.704;2022-12-29T04:35:11;3.17;;;2.87;;
1262;SDS011;62267;50.112;8.704;2022-12-29T04:37:39;3.67;;;3.07;;
1262;SDS011;62267;50.112;8.704;2022-12-29T04:40:07;4.93;;;2.70;;
1262;SDS011;62267;50.112;8.704;2022-12-29T04:42:35;2.90;;;2.60;;
1262;SDS011;62267;50.112;8.704;2022-12-29T04:45:02;3.63;;;2.47;;
1262;SDS011;62267;50.112;8.704;2022-12-29T04:47:41;3.53;;;2.80;;
1262;SDS011;62267;50.112;8.704;2022-12-29T04:50:27;4.83;;;2.67;;
1262;SDS011;62267;50.112;8.704;2022-12-29T04:53:11;2.73;;;2.53;;
1262;SDS011;62267;50.112;8.704;2022-12-29T04:55:39;2.70;;;2.50;;
1262;SDS011;62267;50.112;8.704;2022-12-29T04:58:07;2.53;;;2.43;;
1262;SDS011;62267;50.112;8.704;2022-12-29T05:00:34;3.10;;;2.80;;
1262;SDS011;62267;50.112;8.704;2022-12-29T05:03:02;2.60;;;2.40;;
1262;SDS011;62267;50.112;8.704;2022-12-29T05:05:30;2.27;;;2.10;;
1262;SDS011;62267;50.112;8.704;2022-12-29T05:07:59;3.30;;;2.50;;
1262;SDS011;62267;50.112;8.704;2022-12-29T05:10:26;2.63;;;2.43;;
1262;SDS011;62267;50.112;8.704;2022-12-29T05:12:57;7.10;;;3.70;;
1262;SDS011;62267;50.112;8.704;2022-12-29T05:15:24;3.53;;;2.33;;
1262;SDS011;62267;50.112;8.704;2022-12-29T05:17:52;2.50;;;2.30;;
1262;SDS011;62267;50.112;8.704;2022-12-29T05:20:20;4.90;;;2.17;;
1262;SDS011;62267;50.112;8.704;2022-12-29T05:22:47;2.23;;;2.13;;
1262;SDS011;62267;50.112;8.704;2022-12-29T05:25:14;3.93;;;2.40;;
1262;SDS011;62267;50.112;8.704;2022-12-29T05:27:52;2.87;;;2.33;;
1262;SDS011;62267;50.112;8.704;2022-12-29T05:30:30;2.00;;;1.90;;
1262;SDS011;62267;50.112;8.704;2022-12-29T05:32:58;3.00;;;2.80;;
1262;SDS011;62267;50.112;8.704;2022-12-29T05:35:25;2.80;;;2.60;;
1262;SDS011;62267;50.112;8.704;2022-12-29T05:37:53;3.40;;;2.23;;
1262;SDS011;62267;50.112;8.704;2022-12-29T05:40:21;5.00;;;2.93;;
1262;SDS011;62267;50.112;8.704;2022-12-29T05:42:50;3.00;;;2.50;;
1262;SDS011;62267;50.112;8.704;2022-12-29T05:45:33;2.60;;;2.40;;
1262;SDS011;62267;50.112;8.704;2022-12-29T05:48:19;2.60;;;2.40;;
1262;SDS011;62267;50.112;8.704;2022-12-29T05:51:05;6.07;;;2.80;;
1262;SDS011;62267;50.112;8.704;2022-12-29T05:53:45;2.63;;;2.43;;
1262;SDS011;62267;50.112;8.704;2022-12-29T05:56:12;2.50;;;2.30;;
1262;SDS011;62267;50.112;8.704;2022-12-29T05:58:40;3.27;;;2.47;;
1262;SDS011;62267;50.112;8.704;2022-12-29T06:01:08;3.00;;;2.80;;
1262;SDS011;62267;50.112;8.704;2022-12-29T06:03:36;4.53;;;2.70;;
1262;SDS011;62267;50.112;8.704;2022-12-29T06:06:11;5.00;;;2.30;;
1262;SDS011;62267;50.112;8.704;2022-12-29T06:08:39;2.93;;;2.63;;
1262;SDS011;62267;50.112;8.704;2022-12-29T06:11:08;2.80;;;2.60;;
1262;SDS011;62267;50.112;8.704;2022-12-29T06:13:36;2.83;;;2.60;;
1262;SDS011;62267;50.112;8.704;2022-12-29T06:16:04;3.83;;;2.20;;
1262;SDS011;62267;50.112;8.704;2022-12-29T06:18:32;2.20;;;2.10;;
1262;SDS011;62267;50.112;8.704;2022-12-29T06:21:03;4.17;;;2.20;;
1262;SDS011;62267;50.112;8.704;2022-12-29T06:23:31;2.93;;;2.63;;
1262;SDS011;62267;50.112;8.704;2022-12-29T06:25:58;3.10;;;2.10;;
1262;SDS011;62267;50.112;8.704;2022-12-29T06:28:25;2.57;;;2.30;;
1262;SDS011;62267;50.112;8.704;2022-12-29T06:30:53;3.90;;;2.43;;
1262;SDS011;62267;50.112;8.704;2022-12-29T06:33:21;2.57;;;2.37;;
1262;SDS011;62267;50.112;8.704;2022-12-29T06:35:49;3.00;;;2.30;;
1262;SDS011;62267;50.112;8.704;2022-12-29T06:38:16;2.87;;;2.67;;
1262;SDS011;62267;50.112;8.704;2022-12-29T06:40:44;5.73;;;2.43;;
1262;SDS011;62267;50.112;8.704;2022-12-29T06:43:31;2.40;;;2.17;;
1262;SDS011;62267;50.112;8.704;2022-12-29T06:46:17;2.70;;;2.50;;
1262;SDS011;62267;50.112;8.704;2022-12-29T06:48:45;3.07;;;2.57;;
1262;SDS011;62267;50.112;8.704;2022-12-29T06:51:13;4.60;;;2.70;;
1262;SDS011;62267;50.112;8.704;2022-12-29T06:53:41;3.07;;;2.87;;
1262;SDS011;62267;50.112;8.704;2022-12-29T06:56:08;3.50;;;2.47;;
1262;SDS011;62267;50.112;8.704;2022-12-29T06:58:37;2.63;;;2.43;;
1262;SDS011;62267;50.112;8.704;2022-12-29T07:01:05;4.93;;;3.10;;
1262;SDS011;62267;50.112;8.704;2022-12-29T07:03:32;7.03;;;3.00;;
1262;SDS011;62267;50.112;8.704;2022-12-29T07:06:00;2.70;;;2.50;;
1262;SDS011;62267;50.112;8.704;2022-12-29T07:08:27;3.00;;;2.80;;
1262;SDS011;62267;50.112;8.704;2022-12-29T07:10:54;3.97;;;3.60;;
1262;SDS011;62267;50.112;8.704;2022-12-29T07:13:21;2.80;;;2.53;;
1262;SDS011;62267;50.112;8.704;2022-12-29T07:15:49;3.73;;;3.37;;
1262;SDS011;62267;50.112;8.704;2022-12-29T07:18:16;3.93;;;3.27;;
1262;SDS011;62267;50.112;8.704;2022-12-29T07:20:43;5.13;;;3.27;;
1262;SDS011;62267;50.112;8.704;2022-12-29T07:23:12;4.53;;;3.10;;
1262;SDS011;62267;50.112;8.704;2022-12-29T07:25:39;3.50;;;3.20;;
1262;SDS011;62267;50.112;8.704;2022-12-29T07:28:07;2.93;;;2.70;;
1262;SDS011;62267;50.112;8.704;2022-12-29T07:30:36;3.50;;;2.90;;
1262;SDS011;62267;50.112;8.704;2022-12-29T07:33:04;3.90;;;3.27;;
1262;SDS011;62267;50.112;8.704;2022-12-29T07:35:31;3.87;;;3.40;;
1262;SDS011;62267;50.112;8.704;2022-12-29T07:37:59;3.43;;;2.93;;
1262;SDS011;62267;50.112;8.704;2022-12-29T07:40:27;4.07;;;3.07;;
1262;SDS011;62267;50.112;8.704;2022-12-29T07:42:54;4.10;;;3.33;;
1262;SDS011;62267;50.112;8.704;2022-12-29T07:45:30;3.30;;;3.00;;
1262;SDS011;62267;50.112;8.704;2022-12-29T07:48:09;3.63;;;3.30;;
1262;SDS011;62267;50.112;8.704;2022-12-29T07:50:36;4.53;;;3.77;;
1262;SDS011;62267;50.112;8.704;2022-12-29T07:53:03;6.10;;;3.33;;
1262;SDS011;62267;50.112;8.704;2022-12-29T07:55:31;5.07;;;2.80;;
1262;SDS011;62267;50.112;8.704;2022-12-29T07:58:00;3.90;;;3.10;;
1262;SDS011;62267;50.112;8.704;2022-12-29T08:00:27;4.13;;;2.73;;
1262;SDS011;62267;50.112;8.704;2022-12-29T08:02:56;4.23;;;3.77;;
1262;SDS011;62267;50.112;8.704;2022-12-29T08:05:23;3.40;;;3.10;;
1262;SDS011;62267;50.112;8.704;2022-12-29T08:07:50;3.60;;;3.30;;
1262;SDS011;62267;50.112;8.704;2022-12-29T08:10:17;3.77;;;3.47;;
1262;SDS011;62267;50.112;8.704;2022-12-29T08:12:44;6.00;;;2.70;;
1262;SDS011;62267;50.112;8.704;2022-12-29T08:15:11;3.70;;;3.40;;
1262;SDS011;62267;50.112;8.704;2022-12-29T08:17:40;4.17;;;3.67;;
1262;SDS011;62267;50.112;8.704;2022-12-29T08:20:08;3.47;;;3.17;;
1262;SDS011;62267;50.112;8.704;2022-12-29T08:22:35;3.20;;;2.90;;
1262;SDS011;62267;50.112;8.704;2022-12-29T08:25:02;5.07;;;3.90;;
1262;SDS011;62267;50.112;8.704;2022-12-29T08:27:30;4.57;;;3.00;;
1262;SDS011;62267;50.112;8.704;2022-12-29T08:29:57;3.63;;;3.17;;
1262;SDS011;62267;50.112;8.704;2022-12-29T08:32:26;4.23;;;3.00;;
1262;SDS011;62267;50.112;8.704;2022-12-29T08:34:54;7.57;;;4.60;;
1262;SDS011;62267;50.112;8.704;2022-12-29T08:37:21;4.93;;;3.50;;
1262;SDS011;62267;50.112;8.704;2022-12-29T08:39:56;3.47;;;3.17;;
1262;SDS011;62267;50.112;8.704;2022-12-29T08:42:25;10.20;;;3.30;;
1262;SDS011;62267;50.112;8.704;2022-12-29T08:44:57;3.60;;;3.30;;
1262;SDS011;62267;50.112;8.704;2022-12-29T08:47:25;4.83;;;4.07;;
1262;SDS011;62267;50.112;8.704;2022-12-29T08:49:53;3.83;;;3.43;;
1262;SDS011;62267;50.112;8.704;2022-12-29T08:52:20;5.07;;;3.57;;
1262;SDS011;62267;50.112;8.704;2022-12-29T08:54:49;3.77;;;3.47;;
1262;SDS011;62267;50.112;8.704;2022-12-29T08:57:16;6.97;;;3.73;;
1262;SDS011;62267;50.112;8.704;2022-12-29T08:59:58;4.70;;;3.50;;
1262;SDS011;62267;50.112;8.704;2022-12-29T09:02:25;5.00;;;4.03;;
1262;SDS011;62267;50.112;8.704;2022-12-29T09:04:52;5.57;;;3.77;;
1262;SDS011;62267;50.112;8.704;2022-12-29T09:07:20;5.03;;;3.67;;
1262;SDS011;62267;50.112;8.704;2022-12-29T09:09:47;7.23;;;3.70;;
1262;SDS011;62267;50.112;8.704;2022-12-29T09:12:15;6.60;;;4.00;;
1262;SDS011;62267;50.112;8.704;2022-12-29T09:14:42;8.33;;;3.80;;
1262;SDS011;62267;50.112;8.704;2022-12-29T09:17:10;4.80;;;3.77;;
1262;SDS011;62267;50.112;8.704;2022-12-29T09:19:56;3.73;;;3.43;;
1262;SDS011;62267;50.112;8.704;2022-12-29T09:22:23;5.07;;;4.23;;
1262;SDS011;62267;50.112;8.704;2022-12-29T09:24:50;4.43;;;4.03;;
1262;SDS011;62267;50.112;8.704;2022-12-29T09:27:18;7.03;;;4.40;;
1262;SDS011;62267;50.112;8.704;2022-12-29T09:29:47;4.63;;;4.30;;
1262;SDS011;62267;50.112;8.704;2022-12-29T09:32:15;6.17;;;4.70;;
1262;SDS011;62267;50.112;8.704;2022-12-29T09:34:45;5.10;;;4.70;;
1262;SDS011;62267;50.112;8.704;2022-12-29T09:37:12;5.67;;;4.40;;
1262;SDS011;62267;50.112;8.704;2022-12-29T09:39:39;4.50;;;4.10;;
1262;SDS011;62267;50.112;8.704;2022-12-29T09:45:11;5.83;;;4.50;;
1262;SDS011;62267;50.112;8.704;2022-12-29T09:47:41;5.67;;;4.40;;
1262;SDS011;62267;50.112;8.704;2022-12-29T09:50:12;7.23;;;4.67;;
1262;SDS011;62267;50.112;8.704;2022-12-29T09:52:47;8.83;;;4.70;;
1262;SDS011;62267;50.112;8.704;2022-12-29T09:55:17;5.40;;;4.97;;
1262;SDS011;62267;50.112;8.704;2022-12-29T09:57:47;7.63;;;4.90;;
1262;SDS011;62267;50.112;8.704;2022-12-29T10:00:17;6.97;;;5.37;;
1262;SDS011;62267;50.112;8.704;2022-12-29T10:05:48;7.30;;;5.40;;
1262;SDS011;62267;50.112;8.704;2022-12-29T10:10:54;4.70;;;4.00;;
1262;SDS011;62267;50.112;8.704;2022-12-29T10:16:09;3.97;;;3.57;;
1262;SDS011;62267;50.112;8.704;2022-12-29T10:18:43;4.60;;;3.40;;
1262;SDS011;62267;50.112;8.704;2022-12-29T10:21:28;2.70;;;2.50;;
1262;SDS011;62267;50.112;8.704;2022-12-29T10:24:00;2.97;;;2.77;;
1262;SDS011;62267;50.112;8.704;2022-12-29T10:26:30;3.20;;;2.40;;
1262;SDS011;62267;50.112;8.704;2022-12-29T10:29:05;2.40;;;2.20;;
1262;SDS011;62267;50.112;8.704;2022-12-29T10:31:37;2.23;;;2.13;;
1262;SDS011;62267;50.112;8.704;2022-12-29T10:34:07;2.40;;;2.20;;
1262;SDS011;62267;50.112;8.704;2022-12-29T10:36:42;2.33;;;2.13;;
1262;SDS011;62267;50.112;8.704;2022-12-29T10:41:48;3.17;;;2.57;;
1262;SDS011;62267;50.112;8.704;2022-12-29T10:44:16;4.53;;;3.23;;
1262;SDS011;62267;50.112;8.704;2022-12-29T10:46:54;5.23;;;3.10;;
1262;SDS011;62267;50.112;8.704;2022-12-29T10:49:22;2.43;;;2.23;;
1262;SDS011;62267;50.112;8.704;2022-12-29T10:51:51;2.10;;;1.97;;
1262;SDS011;62267;50.112;8.704;2022-12-29T10:54:23;2.83;;;2.60;;
1262;SDS011;62267;50.112;8.704;2022-12-29T10:57:04;2.17;;;2.00;;
1262;SDS011;62267;50.112;8.704;2022-12-29T10:59:33;2.57;;;2.37;;
1262;SDS011;62267;50.112;8.704;2022-12-29T11:04:57;2.93;;;2.73;;
1262;SDS011;62267;50.112;8.704;2022-12-29T11:07:28;2.60;;;2.40;;
1262;SDS011;62267;50.112;8.704;2022-12-29T11:12:57;2.10;;;2.00;;
1262;SDS011;62267;50.112;8.704;2022-12-29T11:15:24;2.30;;;2.20;;
1262;SDS011;62267;50.112;8.704;2022-12-29T11:17:52;2.20;;;2.00;;
1262;SDS011;62267;50.112;8.704;2022-12-29T11:20:27;3.77;;;2.30;;
1262;SDS011;62267;50.112;8.704;2022-12-29T11:22:55;2.73;;;1.87;;
1262;SDS011;62267;50.112;8.704;2022-12-29T11:25:22;2.20;;;1.93;;
1262;SDS011;62267;50.112;8.704;2022-12-29T11:30:24;2.20;;;1.90;;
1262;SDS011;62267;50.112;8.704;2022-12-29T11:32:53;2.37;;;2.17;;
1262;SDS011;62267;50.112;8.704;2022-12-29T11:35:40;4.30;;;2.70;;
1262;SDS011;62267;50.112;8.704;2022-12-29T11:38:18;3.47;;;2.00;;
1262;SDS011;62267;50.112;8.704;2022-12-29T11:40:46;3.03;;;2.63;;
1262;SDS011;62267;50.112;8.704;2022-12-29T11:43:28;2.27;;;1.87;;
1262;SDS011;62267;50.112;8.704;2022-12-29T11:45:59;3.73;;;2.57;;
1262;SDS011;62267;50.112;8.704;2022-12-29T11:48:31;2.23;;;2.03;;
1262;SDS011;62267;50.112;8.704;2022-12-29T11:50:59;3.73;;;2.00;;
1262;SDS011;62267;50.112;8.704;2022-12-29T11:53:42;3.17;;;2.70;;
1262;SDS011;62267;50.112;8.704;2022-12-29T11:56:12;3.57;;;2.60;;
1262;SDS011;62267;50.112;8.704;2022-12-29T11:58:41;3.67;;;2.30;;
1262;SDS011;62267;50.112;8.704;2022-12-29T12:01:19;2.90;;;2.60;;
1262;SDS011;62267;50.112;8.704;2022-12-29T12:06:20;2.70;;;2.10;;
1262;SDS011;62267;50.112;8.704;2022-12-29T12:08:55;3.50;;;2.00;;
1262;SDS011;62267;50.112;8.704;2022-12-29T12:11:34;4.00;;;1.87;;
1262;SDS011;62267;50.112;8.704;2022-12-29T12:14:06;4.67;;;2.20;;
1262;SDS011;62267;50.112;8.704;2022-12-29T12:17:02;2.30;;;1.80;;
1262;SDS011;62267;50.112;8.704;2022-12-29T12:22:19;2.30;;;2.00;;
1262;SDS011;62267;50.112;8.704;2022-12-29T12:24:49;5.13;;;2.70;;
1262;SDS011;62267;50.112;8.704;2022-12-29T12:27:20;2.40;;;2.10;;
1262;SDS011;62267;50.112;8.704;2022-12-29T12:30:14;2.10;;;1.90;;
1262;SDS011;62267;50.112;8.704;2022-12-29T12:32:50;1.67;;;1.57;;
1262;SDS011;62267;50.112;8.704;2022-12-29T12:35:23;3.90;;;1.70;;
1262;SDS011;62267;50.112;8.704;2022-12-29T12:43:41;2.20;;;2.10;;
1262;SDS011;62267;50.112;8.704;2022-12-29T12:46:18;3.03;;;2.20;;
1262;SDS011;62267;50.112;8.704;2022-12-29T12:48:54;2.20;;;2.00;;
1262;SDS011;62267;50.112;8.704;2022-12-29T12:54:12;2.73;;;1.90;;
1262;SDS011;62267;50.112;8.704;2022-12-29T12:56:51;2.00;;;1.90;;
1262;SDS011;62267;50.112;8.704;2022-12-29T12:59:46;2.23;;;2.13;;
1262;SDS011;62267;50.112;8.704;2022-12-29T13:13:10;3.60;;;2.33;;
1262;SDS011;62267;50.112;8.704;2022-12-29T13:18:35;3.47;;;2.10;;
1262;SDS011;62267;50.112;8.704;2022-12-29T13:21:07;2.83;;;2.23;;
1262;SDS011;62267;50.112;8.704;2022-12-29T13:23:39;3.27;;;2.23;;
1262;SDS011;62267;50.112;8.704;2022-12-29T13:29:10;2.33;;;2.00;;
1262;SDS011;62267;50.112;8.704;2022-12-29T13:34:17;2.60;;;2.40;;
1262;SDS011;62267;50.112;8.704;2022-12-29T13:36:59;2.43;;;2.20;;
1262;SDS011;62267;50.112;8.704;2022-12-29T13:39:41;2.97;;;2.20;;
1262;SDS011;62267;50.112;8.704;2022-12-29T13:42:09;2.33;;;2.07;;
1262;SDS011;62267;50.112;8.704;2022-12-29T13:44:43;3.37;;;2.40;;
1262;SDS011;62267;50.112;8.704;2022-12-29T13:49:48;3.53;;;2.23;;
1262;SDS011;62267;50.112;8.704;2022-12-29T13:52:34;2.00;;;1.80;;
1262;SDS011;62267;50.112;8.704;2022-12-29T13:55:18;2.03;;;1.90;;
1262;SDS011;62267;50.112;8.704;2022-12-29T13:57:48;2.17;;;1.90;;
1262;SDS011;62267;50.112;8.704;2022-12-29T14:00:20;3.23;;;1.93;;
1262;SDS011;62267;50.112;8.704;2022-12-29T14:02:55;2.80;;;2.13;;
1262;SDS011;62267;50.112;8.704;2022-12-29T14:05:28;2.83;;;2.50;;
1262;SDS011;62267;50.112;8.704;2022-12-29T14:08:00;2.40;;;2.03;;
1262;SDS011;62267;50.112;8.704;2022-12-29T14:10:35;2.90;;;2.30;;
1262;SDS011;62267;50.112;8.704;2022-12-29T14:13:09;2.23;;;2.00;;
1262;SDS011;62267;50.112;8.704;2022-12-29T14:15:38;2.30;;;2.20;;
1262;SDS011;62267;50.112;8.704;2022-12-29T14:18:21;6.70;;;2.30;;
1262;SDS011;62267;50.112;8.704;2022-12-29T14:20:56;3.53;;;2.33;;
1262;SDS011;62267;50.112;8.704;2022-12-29T14:23:27;3.17;;;2.20;;
1262;SDS011;62267;50.112;8.704;2022-12-29T14:25:59;2.00;;;1.90;;
1262;SDS011;62267;50.112;8.704;2022-12-29T14:28:36;6.43;;;2.90;;
1262;SDS011;62267;50.112;8.704;2022-12-29T14:31:50;2.77;;;2.47;;
1262;SDS011;62267;50.112;8.704;2022-12-29T14:39:25;2.73;;;2.43;;
1262;SDS011;62267;50.112;8.704;2022-12-29T14:44:50;2.40;;;2.20;;
1262;SDS011;62267;50.112;8.704;2022-12-29T14:49:46;2.63;;;2.10;;
1262;SDS011;62267;50.112;8.704;2022-12-29T14:52:17;4.00;;;2.70;;
1262;SDS011;62267;50.112;8.704;2022-12-29T14:54:52;2.63;;;2.20;;
1262;SDS011;62267;50.112;8.704;2022-12-29T14:59:48;2.50;;;2.20;;
1262;SDS011;62267;50.112;8.704;2022-12-29T15:02:20;2.37;;;1.90;;
1262;SDS011;62267;50.112;8.704;2022-12-29T15:04:48;2.60;;;2.40;;
1262;SDS011;62267;50.112;8.704;2022-12-29T15:07:15;2.43;;;2.23;;
1262;SDS011;62267;50.112;8.704;2022-12-29T15:09:48;5.00;;;2.10;;
1262;SDS011;62267;50.112;8.704;2022-12-29T15:12:35;2.00;;;1.90;;
1262;SDS011;62267;50.112;8.704;2022-12-29T15:15:17;2.50;;;2.23;;
1262;SDS011;62267;50.112;8.704;2022-12-29T15:17:45;2.43;;;2.23;;
1262;SDS011;62267;50.112;8.704;2022-12-29T15:20:20;2.00;;;1.80;;
1262;SDS011;62267;50.112;8.704;2022-12-29T15:22:57;4.60;;;2.40;;
1262;SDS011;62267;50.112;8.704;2022-12-29T15:25:25;2.47;;;2.27;;
1262;SDS011;62267;50.112;8.704;2022-12-29T15:27:54;3.20;;;2.10;;
1262;SDS011;62267;50.112;8.704;2022-12-29T15:30:23;2.97;;;2.10;;
1262;SDS011;62267;50.112;8.704;2022-12-29T15:32:50;4.00;;;2.33;;
1262;SDS011;62267;50.112;8.704;2022-12-29T15:35:25;3.77;;;2.27;;
1262;SDS011;62267;50.112;8.704;2022-12-29T15:37:53;3.10;;;2.80;;
1262;SDS011;62267;50.112;8.704;2022-12-29T15:40:27;2.70;;;2.33;;
1262;SDS011;62267;50.112;8.704;2022-12-29T15:45:34;3.67;;;2.20;;
1262;SDS011;62267;50.112;8.704;2022-12-29T15:48:03;2.40;;;2.03;;
1262;SDS011;62267;50.112;8.704;2022-12-29T15:50:31;2.37;;;2.17;;
1262;SDS011;62267;50.112;8.704;2022-12-29T15:52:59;4.50;;;1.80;;
1262;SDS011;62267;50.112;8.704;2022-12-29T15:55:30;3.53;;;2.20;;
1262;SDS011;62267;50.112;8.704;2022-12-29T15:57:59;3.57;;;2.20;;
1262;SDS011;62267;50.112;8.704;2022-12-29T16:00:28;7.00;;;2.67;;
1262;SDS011;62267;50.112;8.704;2022-12-29T16:02:58;1.90;;;1.73;;
1262;SDS011;62267;50.112;8.704;2022-12-29T16:05:36;3.00;;;1.63;;
1262;SDS011;62267;50.112;8.704;2022-12-29T16:08:15;4.73;;;2.00;;
1262;SDS011;62267;50.112;8.704;2022-12-29T16:10:47;3.83;;;2.33;;
1262;SDS011;62267;50.112;8.704;2022-12-29T16:13:18;3.13;;;2.23;;
1262;SDS011;62267;50.112;8.704;2022-12-29T16:15:46;3.60;;;2.80;;
1262;SDS011;62267;50.112;8.704;2022-12-29T16:18:24;3.93;;;2.30;;
1262;SDS011;62267;50.112;8.704;2022-12-29T16:20:52;3.87;;;1.83;;
1262;SDS011;62267;50.112;8.704;2022-12-29T16:23:20;2.13;;;1.93;;
1262;SDS011;62267;50.112;8.704;2022-12-29T16:25:48;3.03;;;2.00;;
1262;SDS011;62267;50.112;8.704;2022-12-29T16:28:17;4.20;;;2.00;;
1262;SDS011;62267;50.112;8.704;2022-12-29T16:30:45;3.70;;;1.93;;
1262;SDS011;62267;50.112;8.704;2022-12-29T16:33:38;2.60;;;2.10;;
1262;SDS011;62267;50.112;8.704;2022-12-29T16:35:59;3.20;;;2.30;;
1262;SDS011;62267;50.112;8.704;2022-12-29T16:38:30;2.20;;;2.00;;
1262;SDS011;62267;50.112;8.704;2022-12-29T16:41:00;3.60;;;2.00;;
1262;SDS011;62267;50.112;8.704;2022-12-29T16:43:33;4.20;;;2.00;;
1262;SDS011;62267;50.112;8.704;2022-12-29T16:48:29;3.63;;;2.17;;
1262;SDS011;62267;50.112;8.704;2022-12-29T16:51:39;3.33;;;2.20;;
1262;SDS011;62267;50.112;8.704;2022-12-29T16:53:48;3.10;;;2.00;;
1262;SDS011;62267;50.112;8.704;2022-12-29T16:56:21;2.63;;;2.43;;
1262;SDS011;62267;50.112;8.704;2022-12-29T16:59:16;3.93;;;2.17;;
1262;SDS011;62267;50.112;8.704;2022-12-29T17:01:40;3.07;;;2.60;;
1262;SDS011;62267;50.112;8.704;2022-12-29T17:04:10;5.70;;;2.83;;
1262;SDS011;62267;50.112;8.704;2022-12-29T17:06:37;6.87;;;2.63;;
1262;SDS011;62267;50.112;8.704;2022-12-29T17:09:21;3.60;;;1.87;;
1262;SDS011;62267;50.112;8.704;2022-12-29T17:11:50;3.73;;;2.53;;
1262;SDS011;62267;50.112;8.704;2022-12-29T17:14:35;13.10;;;4.83;;
1262;SDS011;62267;50.112;8.704;2022-12-29T17:17:03;3.77;;;2.80;;